Boston, MA (02196)

1:07 PM EST on December 28, 2014 (GMT -0500)
South Boston | Change Station
CLOSE
Current Station
Personal Weather Station
Location: Boston, MA
Elevation: 33 ft
Nearby Weather Stations

Elev 33 ft 42.34 °N, 71.06 °W | Updated 9 minutes ago

Overcast
Overcast
50.8 °F
Feels Like 50.8 °F
N
7.0
Wind Variable Wind from SSW
Gusts 18.0 mph

Today
High -- | Low -- °F
--% Chance of Precip.
Yesterday
High -- | Low -- °F
Precip. -- in
7:12 AM 4:19 PM
Waxing Crescent, 50% visible
Pressure 29.77 in
Visibility 10.0 miles
Clouds Few 3000 ft
Mostly Cloudy 10000 ft
Overcast 14000 ft
Dew Point 43 °F
Humidity 75%
Rainfall 0.00 in
Snow Depth Not available.
UV 1 out of 12
Pollen .10 out of 12
Air Quality Not available.
Flu Activity Not available.
METAR KBOS 281754Z 25010KT 10SM FEW030 BKN100 OVC140 10/06 A2977 RMK AO2 SLP079 60001 T01000056 10100 20072 56020

More Conditions Fewer Conditions

Pressure 29.77 in
Visibility 10.0 miles
Clouds Few 3000 ft
Mostly Cloudy 10000 ft
Overcast 14000 ft
Dew Point 43 °F
Humidity 75%
Rainfall 0.00 in
Snow Depth Not available.
UV 1 out of 12
Pollen .10 out of 12
Air Quality Not available.
Flu Activity Not available.
METAR KBOS 281754Z 25010KT 10SM FEW030 BKN100 OVC140 10/06 A2977 RMK AO2 SLP079 60001 T01000056 10100 20072 56020

More Conditions Fewer Conditions

10-Day Weather Forecast

Almanac

Astronomy

Dec. 28, 2014 Rise Set
Actual Time
Civil Twilight
Nautical Twilight
Astronomical Twilight
Moon
Length of Visible Light
Length of Day
Tomorrow will be .
, % of the Moon is Illuminated

Today's Extremes

State Highs State Lows

Community

WunderPhotos

Upload Photos

1,781,375 photos uploaded!

WunderBlogs® & News

Nearby

Air Quality

  Air Quality AQ Index Pollutant
Not available.

Snow Depth

Station Depth Elevation

Earthquake Activity

City Distance Mag. Time & Date
Minimum magnitude displayed is 2.5.

Coastal Water Temperatures

Place Temperature

Nearby Weather Stations